sensor_id;sensor_type;location;lat;lon;timestamp;pressure;altitude;pressure_sealevel;temperature;humidity
55456;BME280;63021;52.836;6.376;2023-06-22T00:00:50;102058.06;;;18.86;64.55
55456;BME280;63021;52.836;6.376;2023-06-22T00:03:20;102041.72;;;18.88;64.78
55456;BME280;63021;52.836;6.376;2023-06-22T00:05:47;102033.06;;;18.84;64.16
55456;BME280;63021;52.836;6.376;2023-06-22T00:08:13;102038.63;;;18.83;64.02
55456;BME280;63021;52.836;6.376;2023-06-22T00:10:39;102047.91;;;18.80;64.37
55456;BME280;63021;52.836;6.376;2023-06-22T00:13:06;102041.88;;;18.78;64.66
55456;BME280;63021;52.836;6.376;2023-06-22T00:15:32;102038.00;;;18.73;64.54
55456;BME280;63021;52.836;6.376;2023-06-22T00:17:58;102055.69;;;18.67;64.56
55456;BME280;63021;52.836;6.376;2023-06-22T00:20:24;102046.09;;;18.64;64.59
55456;BME280;63021;52.836;6.376;2023-06-22T00:22:53;102043.56;;;18.63;64.88
55456;BME280;63021;52.836;6.376;2023-06-22T00:25:19;102067.34;;;18.59;64.86
55456;BME280;63021;52.836;6.376;2023-06-22T00:27:45;102053.34;;;18.56;65.16
55456;BME280;63021;52.836;6.376;2023-06-22T00:30:10;102055.56;;;18.52;65.26
55456;BME280;63021;52.836;6.376;2023-06-22T00:32:36;102051.34;;;18.49;65.12
55456;BME280;63021;52.836;6.376;2023-06-22T00:35:01;102053.34;;;18.47;64.88
55456;BME280;63021;52.836;6.376;2023-06-22T00:37:27;102055.41;;;18.45;65.12
55456;BME280;63021;52.836;6.376;2023-06-22T00:39:55;102062.66;;;18.45;64.79
55456;BME280;63021;52.836;6.376;2023-06-22T00:42:21;102062.13;;;18.41;65.55
55456;BME280;63021;52.836;6.376;2023-06-22T00:44:46;102049.16;;;18.37;65.66
55456;BME280;63021;52.836;6.376;2023-06-22T00:47:14;102065.16;;;18.30;66.11
55456;BME280;63021;52.836;6.376;2023-06-22T00:49:41;102045.63;;;18.28;65.69
55456;BME280;63021;52.836;6.376;2023-06-22T00:52:07;102047.47;;;18.27;65.61
55456;BME280;63021;52.836;6.376;2023-06-22T00:54:40;102052.19;;;18.25;65.88
55456;BME280;63021;52.836;6.376;2023-06-22T00:57:11;102048.16;;;18.21;66.62
55456;BME280;63021;52.836;6.376;2023-06-22T00:59:37;102070.22;;;18.16;66.55
55456;BME280;63021;52.836;6.376;2023-06-22T01:02:05;102049.16;;;18.12;66.23
55456;BME280;63021;52.836;6.376;2023-06-22T01:04:35;102047.28;;;18.04;66.94
55456;BME280;63021;52.836;6.376;2023-06-22T01:09:51;102039.16;;;17.88;66.98
55456;BME280;63021;52.836;6.376;2023-06-22T01:12:21;102028.38;;;17.79;67.03
55456;BME280;63021;52.836;6.376;2023-06-22T01:14:56;102037.47;;;17.78;66.86
55456;BME280;63021;52.836;6.376;2023-06-22T01:17:23;102032.75;;;17.72;66.94
55456;BME280;63021;52.836;6.376;2023-06-22T01:19:51;102031.38;;;17.68;67.11
55456;BME280;63021;52.836;6.376;2023-06-22T01:22:24;102018.94;;;17.67;66.98
55456;BME280;63021;52.836;6.376;2023-06-22T01:25:13;102019.94;;;17.66;67.32
55456;BME280;63021;52.836;6.376;2023-06-22T01:27:50;102021.28;;;17.62;66.58
55456;BME280;63021;52.836;6.376;2023-06-22T01:30:18;102018.22;;;17.57;66.94
55456;BME280;63021;52.836;6.376;2023-06-22T01:32:44;102014.03;;;17.54;67.46
55456;BME280;63021;52.836;6.376;2023-06-22T01:35:10;102021.25;;;17.54;67.13
55456;BME280;63021;52.836;6.376;2023-06-22T01:37:38;102019.56;;;17.53;67.14
55456;BME280;63021;52.836;6.376;2023-06-22T01:40:06;102010.81;;;17.51;67.32
55456;BME280;63021;52.836;6.376;2023-06-22T01:42:34;102022.59;;;17.49;67.51
55456;BME280;63021;52.836;6.376;2023-06-22T01:45:00;102037.38;;;17.45;67.70
55456;BME280;63021;52.836;6.376;2023-06-22T01:47:27;102024.44;;;17.49;67.86
55456;BME280;63021;52.836;6.376;2023-06-22T01:49:53;102016.69;;;17.46;67.50
55456;BME280;63021;52.836;6.376;2023-06-22T01:52:19;102022.09;;;17.46;67.79
55456;BME280;63021;52.836;6.376;2023-06-22T01:54:46;102019.38;;;17.46;68.01
55456;BME280;63021;52.836;6.376;2023-06-22T01:57:12;102028.78;;;17.42;67.78
55456;BME280;63021;52.836;6.376;2023-06-22T02:02:10;102016.88;;;17.44;68.31
55456;BME280;63021;52.836;6.376;2023-06-22T02:04:44;102008.78;;;17.44;68.18
55456;BME280;63021;52.836;6.376;2023-06-22T02:07:14;102013.00;;;17.47;68.15
55456;BME280;63021;52.836;6.376;2023-06-22T02:09:44;102019.22;;;17.47;68.30
55456;BME280;63021;52.836;6.376;2023-06-22T02:12:12;102023.59;;;17.48;68.05
55456;BME280;63021;52.836;6.376;2023-06-22T02:14:39;102028.28;;;17.46;68.08
55456;BME280;63021;52.836;6.376;2023-06-22T02:17:05;102024.25;;;17.42;67.86
55456;BME280;63021;52.836;6.376;2023-06-22T02:19:36;102032.97;;;17.36;67.70
55456;BME280;63021;52.836;6.376;2023-06-22T02:22:02;102025.06;;;17.35;67.43
55456;BME280;63021;52.836;6.376;2023-06-22T02:24:27;102025.41;;;17.31;67.75
55456;BME280;63021;52.836;6.376;2023-06-22T02:26:57;102023.88;;;17.29;67.78
55456;BME280;63021;52.836;6.376;2023-06-22T02:29:22;102026.03;;;17.25;67.59
55456;BME280;63021;52.836;6.376;2023-06-22T02:31:48;102020.81;;;17.24;67.30
55456;BME280;63021;52.836;6.376;2023-06-22T02:34:13;102024.69;;;17.21;67.64
55456;BME280;63021;52.836;6.376;2023-06-22T02:36:47;102019.47;;;17.20;67.90
55456;BME280;63021;52.836;6.376;2023-06-22T02:39:23;102026.84;;;17.18;67.94
55456;BME280;63021;52.836;6.376;2023-06-22T02:41:53;102024.31;;;17.16;68.09
55456;BME280;63021;52.836;6.376;2023-06-22T02:44:19;102023.66;;;17.14;67.96
55456;BME280;63021;52.836;6.376;2023-06-22T02:46:47;102019.75;;;17.08;68.02
55456;BME280;63021;52.836;6.376;2023-06-22T02:49:12;102026.13;;;17.07;68.44
55456;BME280;63021;52.836;6.376;2023-06-22T02:51:42;102007.78;;;17.03;68.52
55456;BME280;63021;52.836;6.376;2023-06-22T02:54:07;102017.69;;;17.02;68.30
55456;BME280;63021;52.836;6.376;2023-06-22T02:56:33;102014.34;;;17.00;68.55
55456;BME280;63021;52.836;6.376;2023-06-22T02:58:58;102007.59;;;16.96;68.73
55456;BME280;63021;52.836;6.376;2023-06-22T03:01:27;102023.88;;;16.94;68.64
55456;BME280;63021;52.836;6.376;2023-06-22T03:03:53;102018.84;;;16.91;69.11
55456;BME280;63021;52.836;6.376;2023-06-22T03:06:20;102018.13;;;16.89;68.75
55456;BME280;63021;52.836;6.376;2023-06-22T03:08:49;102012.91;;;16.88;68.80
55456;BME280;63021;52.836;6.376;2023-06-22T03:11:15;102020.28;;;16.86;68.82
55456;BME280;63021;52.836;6.376;2023-06-22T03:13:41;102018.44;;;16.86;68.63
55456;BME280;63021;52.836;6.376;2023-06-22T03:16:06;102019.28;;;16.87;68.99
55456;BME280;63021;52.836;6.376;2023-06-22T03:18:32;102007.00;;;16.84;68.91
55456;BME280;63021;52.836;6.376;2023-06-22T03:20:57;102004.63;;;16.81;68.70
55456;BME280;63021;52.836;6.376;2023-06-22T03:23:23;102024.28;;;16.82;68.64
55456;BME280;63021;52.836;6.376;2023-06-22T03:25:48;102009.47;;;16.77;68.47
55456;BME280;63021;52.836;6.376;2023-06-22T03:28:13;102016.88;;;16.75;68.42
55456;BME280;63021;52.836;6.376;2023-06-22T03:30:39;102009.41;;;16.69;68.25
55456;BME280;63021;52.836;6.376;2023-06-22T03:33:04;102013.97;;;16.69;68.17
55456;BME280;63021;52.836;6.376;2023-06-22T03:35:29;102001.84;;;16.65;68.15
55456;BME280;63021;52.836;6.376;2023-06-22T03:37:55;102010.22;;;16.61;68.12
55456;BME280;63021;52.836;6.376;2023-06-22T03:40:20;102002.63;;;16.57;68.22
55456;BME280;63021;52.836;6.376;2023-06-22T03:42:46;102006.31;;;16.56;68.29
55456;BME280;63021;52.836;6.376;2023-06-22T03:45:11;102004.94;;;16.52;68.29
55456;BME280;63021;52.836;6.376;2023-06-22T03:47:37;102004.28;;;16.50;68.23
55456;BME280;63021;52.836;6.376;2023-06-22T03:50:02;102008.66;;;16.51;68.21
55456;BME280;63021;52.836;6.376;2023-06-22T03:52:29;102002.72;;;16.47;68.15
55456;BME280;63021;52.836;6.376;2023-06-22T03:54:55;102004.03;;;16.43;68.61
55456;BME280;63021;52.836;6.376;2023-06-22T03:57:20;102006.22;;;16.39;68.46
55456;BME280;63021;52.836;6.376;2023-06-22T03:59:46;102007.22;;;16.38;68.53
55456;BME280;63021;52.836;6.376;2023-06-22T04:02:14;102014.56;;;16.36;68.39
55456;BME280;63021;52.836;6.376;2023-06-22T04:04:39;102005.84;;;16.34;68.91
55456;BME280;63021;52.836;6.376;2023-06-22T04:07:05;102002.31;;;16.34;68.83
55456;BME280;63021;52.836;6.376;2023-06-22T04:09:31;102015.03;;;16.32;69.01
55456;BME280;63021;52.836;6.376;2023-06-22T04:11:56;102005.84;;;16.34;69.28
55456;BME280;63021;52.836;6.376;2023-06-22T04:14:21;102015.59;;;16.35;69.35
55456;BME280;63021;52.836;6.376;2023-06-22T04:16:47;102017.13;;;16.38;69.08
55456;BME280;63021;52.836;6.376;2023-06-22T04:19:13;102011.59;;;16.39;69.18
55456;BME280;63021;52.836;6.376;2023-06-22T04:21:42;102009.75;;;16.40;69.19
55456;BME280;63021;52.836;6.376;2023-06-22T04:24:09;102001.34;;;16.43;69.53
55456;BME280;63021;52.836;6.376;2023-06-22T04:26:35;102006.41;;;16.46;69.92
55456;BME280;63021;52.836;6.376;2023-06-22T04:29:05;102006.25;;;16.48;70.35
55456;BME280;63021;52.836;6.376;2023-06-22T04:31:34;102001.25;;;16.53;70.47
55456;BME280;63021;52.836;6.376;2023-06-22T04:34:04;102017.91;;;16.56;69.98
55456;BME280;63021;52.836;6.376;2023-06-22T04:36:34;102010.53;;;16.58;69.96
55456;BME280;63021;52.836;6.376;2023-06-22T04:39:07;102028.88;;;16.63;70.20
55456;BME280;63021;52.836;6.376;2023-06-22T04:41:35;102017.13;;;16.64;70.33
55456;BME280;63021;52.836;6.376;2023-06-22T04:44:13;102017.19;;;16.72;70.14
55456;BME280;63021;52.836;6.376;2023-06-22T04:46:39;102018.69;;;16.75;70.25
55456;BME280;63021;52.836;6.376;2023-06-22T04:49:08;102020.94;;;16.79;70.24
55456;BME280;63021;52.836;6.376;2023-06-22T04:51:41;102023.28;;;16.83;70.12
55456;BME280;63021;52.836;6.376;2023-06-22T04:54:07;102012.53;;;16.83;70.56
55456;BME280;63021;52.836;6.376;2023-06-22T04:56:33;102012.91;;;16.88;70.42
55456;BME280;63021;52.836;6.376;2023-06-22T04:58:59;102008.41;;;16.88;70.30
55456;BME280;63021;52.836;6.376;2023-06-22T05:01:25;102007.22;;;16.91;70.31
55456;BME280;63021;52.836;6.376;2023-06-22T05:03:51;102008.41;;;16.96;70.27
55456;BME280;63021;52.836;6.376;2023-06-22T05:06:21;102030.97;;;17.04;70.77
55456;BME280;63021;52.836;6.376;2023-06-22T05:08:47;102007.97;;;17.09;70.77
55456;BME280;63021;52.836;6.376;2023-06-22T05:11:12;102003.97;;;17.13;70.88
55456;BME280;63021;52.836;6.376;2023-06-22T05:13:37;102011.69;;;17.17;71.13
55456;BME280;63021;52.836;6.376;2023-06-22T05:16:03;102003.34;;;17.20;71.07
55456;BME280;63021;52.836;6.376;2023-06-22T05:18:29;102005.53;;;17.24;71.29
55456;BME280;63021;52.836;6.376;2023-06-22T05:20:55;102004.19;;;17.28;71.66
55456;BME280;63021;52.836;6.376;2023-06-22T05:23:20;102004.38;;;17.35;71.75
55456;BME280;63021;52.836;6.376;2023-06-22T05:25:46;102000.34;;;17.39;71.50
55456;BME280;63021;52.836;6.376;2023-06-22T05:28:11;102006.75;;;17.46;71.20
55456;BME280;63021;52.836;6.376;2023-06-22T05:30:37;102005.09;;;17.54;71.37
55456;BME280;63021;52.836;6.376;2023-06-22T05:33:03;102016.06;;;17.60;71.51
55456;BME280;63021;52.836;6.376;2023-06-22T05:35:29;102004.97;;;17.72;71.53
55456;BME280;63021;52.836;6.376;2023-06-22T05:37:55;102010.69;;;17.77;71.97
55456;BME280;63021;52.836;6.376;2023-06-22T05:40:21;101998.75;;;17.79;72.12
55456;BME280;63021;52.836;6.376;2023-06-22T05:42:46;102004.16;;;17.88;72.44
55456;BME280;63021;52.836;6.376;2023-06-22T05:45:12;101996.28;;;17.94;72.88
55456;BME280;63021;52.836;6.376;2023-06-22T05:47:38;102003.53;;;18.02;72.22
55456;BME280;63021;52.836;6.376;2023-06-22T05:50:05;102006.22;;;18.10;72.80
55456;BME280;63021;52.836;6.376;2023-06-22T05:52:34;101996.28;;;18.19;72.57
55456;BME280;63021;52.836;6.376;2023-06-22T05:54:59;101997.78;;;18.30;72.46
55456;BME280;63021;52.836;6.376;2023-06-22T05:57:25;101989.34;;;18.33;72.97
55456;BME280;63021;52.836;6.376;2023-06-22T05:59:50;101989.50;;;18.40;72.63
55456;BME280;63021;52.836;6.376;2023-06-22T06:02:16;101986.97;;;18.46;72.50
55456;BME280;63021;52.836;6.376;2023-06-22T06:04:42;102000.59;;;18.53;72.62
55456;BME280;63021;52.836;6.376;2023-06-22T06:07:07;102002.47;;;18.61;72.41
55456;BME280;63021;52.836;6.376;2023-06-22T06:09:32;101999.06;;;18.67;72.13
55456;BME280;63021;52.836;6.376;2023-06-22T06:11:58;102001.06;;;18.73;72.01
55456;BME280;63021;52.836;6.376;2023-06-22T06:14:23;101997.69;;;18.79;72.25
55456;BME280;63021;52.836;6.376;2023-06-22T06:16:49;102004.13;;;18.86;72.09
55456;BME280;63021;52.836;6.376;2023-06-22T06:19:15;101998.00;;;18.93;71.85
55456;BME280;63021;52.836;6.376;2023-06-22T06:21:40;102011.47;;;19.01;71.98
55456;BME280;63021;52.836;6.376;2023-06-22T06:24:06;102006.03;;;19.09;71.61
55456;BME280;63021;52.836;6.376;2023-06-22T06:26:31;102007.00;;;19.16;71.08
55456;BME280;63021;52.836;6.376;2023-06-22T06:29:00;102007.66;;;19.27;71.26
55456;BME280;63021;52.836;6.376;2023-06-22T06:31:25;102009.66;;;19.33;70.90
55456;BME280;63021;52.836;6.376;2023-06-22T06:33:54;102012.97;;;19.43;71.00
55456;BME280;63021;52.836;6.376;2023-06-22T06:36:19;102014.63;;;19.52;70.83
55456;BME280;63021;52.836;6.376;2023-06-22T06:38:45;102000.84;;;19.62;70.32
55456;BME280;63021;52.836;6.376;2023-06-22T06:41:15;102002.69;;;19.70;70.05
55456;BME280;63021;52.836;6.376;2023-06-22T06:43:42;102001.97;;;19.76;69.66
55456;BME280;63021;52.836;6.376;2023-06-22T06:46:10;102006.16;;;19.87;68.88
55456;BME280;63021;52.836;6.376;2023-06-22T06:48:36;102003.53;;;19.94;68.66
55456;BME280;63021;52.836;6.376;2023-06-22T06:51:01;102005.03;;;19.96;68.12
55456;BME280;63021;52.836;6.376;2023-06-22T06:53:27;102014.13;;;20.03;67.37
55456;BME280;63021;52.836;6.376;2023-06-22T06:55:53;102002.94;;;20.06;67.12
55456;BME280;63021;52.836;6.376;2023-06-22T06:58:19;101999.03;;;20.09;67.02
55456;BME280;63021;52.836;6.376;2023-06-22T07:00:44;101998.47;;;20.14;66.58
55456;BME280;63021;52.836;6.376;2023-06-22T07:03:10;102004.66;;;20.22;66.78
55456;BME280;63021;52.836;6.376;2023-06-22T07:05:35;102008.50;;;20.28;65.69
55456;BME280;63021;52.836;6.376;2023-06-22T07:08:01;102007.28;;;20.31;65.75
55456;BME280;63021;52.836;6.376;2023-06-22T07:10:28;102011.59;;;20.40;65.95
55456;BME280;63021;52.836;6.376;2023-06-22T07:12:54;102001.06;;;20.45;65.79
55456;BME280;63021;52.836;6.376;2023-06-22T07:15:19;102015.72;;;20.51;65.32
55456;BME280;63021;52.836;6.376;2023-06-22T07:17:45;101999.97;;;20.54;65.09
55456;BME280;63021;52.836;6.376;2023-06-22T07:20:10;101999.03;;;20.62;64.84
55456;BME280;63021;52.836;6.376;2023-06-22T07:22:39;101991.06;;;20.69;64.81
55456;BME280;63021;52.836;6.376;2023-06-22T07:25:06;101984.69;;;20.76;64.69
55456;BME280;63021;52.836;6.376;2023-06-22T07:27:56;101981.03;;;20.84;64.23
55456;BME280;63021;52.836;6.376;2023-06-22T07:30:22;101984.69;;;20.91;64.46
55456;BME280;63021;52.836;6.376;2023-06-22T07:32:48;101983.09;;;20.97;64.13
55456;BME280;63021;52.836;6.376;2023-06-22T07:35:13;101978.06;;;21.09;63.55
55456;BME280;63021;52.836;6.376;2023-06-22T07:37:41;101974.41;;;21.17;63.17
55456;BME280;63021;52.836;6.376;2023-06-22T07:40:07;101970.09;;;21.22;62.80
55456;BME280;63021;52.836;6.376;2023-06-22T07:42:33;101972.22;;;21.27;62.33
55456;BME280;63021;52.836;6.376;2023-06-22T07:44:59;101973.13;;;21.34;62.07
55456;BME280;63021;52.836;6.376;2023-06-22T07:47:24;101965.28;;;21.39;61.84
55456;BME280;63021;52.836;6.376;2023-06-22T07:49:53;101965.34;;;21.46;61.76
55456;BME280;63021;52.836;6.376;2023-06-22T07:52:20;101961.41;;;21.49;61.75
55456;BME280;63021;52.836;6.376;2023-06-22T07:54:46;101958.63;;;21.57;62.09
55456;BME280;63021;52.836;6.376;2023-06-22T07:57:12;101962.03;;;21.66;61.30
55456;BME280;63021;52.836;6.376;2023-06-22T07:59:37;101967.72;;;21.71;61.21
55456;BME280;63021;52.836;6.376;2023-06-22T08:02:04;101955.06;;;21.78;60.65
55456;BME280;63021;52.836;6.376;2023-06-22T08:04:30;101955.31;;;21.83;60.56
55456;BME280;63021;52.836;6.376;2023-06-22T08:06:56;101948.47;;;21.87;60.83
55456;BME280;63021;52.836;6.376;2023-06-22T08:09:22;101945.63;;;21.95;60.73
55456;BME280;63021;52.836;6.376;2023-06-22T08:11:47;101955.94;;;22.07;60.25
55456;BME280;63021;52.836;6.376;2023-06-22T08:14:14;101951.41;;;22.14;59.84
55456;BME280;63021;52.836;6.376;2023-06-22T08:16:41;101941.44;;;22.21;59.73
55456;BME280;63021;52.836;6.376;2023-06-22T08:19:06;101938.13;;;22.26;59.87
55456;BME280;63021;52.836;6.376;2023-06-22T08:21:32;101944.91;;;22.37;59.74
55456;BME280;63021;52.836;6.376;2023-06-22T08:23:57;101947.66;;;22.43;59.67
55456;BME280;63021;52.836;6.376;2023-06-22T08:26:23;101942.28;;;22.50;59.11
55456;BME280;63021;52.836;6.376;2023-06-22T08:28:48;101940.00;;;22.54;58.80
55456;BME280;63021;52.836;6.376;2023-06-22T08:31:14;101940.25;;;22.59;58.86
55456;BME280;63021;52.836;6.376;2023-06-22T08:33:39;101925.25;;;22.63;58.47
55456;BME280;63021;52.836;6.376;2023-06-22T08:36:06;101937.19;;;22.75;58.65
55456;BME280;63021;52.836;6.376;2023-06-22T08:38:31;101932.63;;;22.82;58.83
55456;BME280;63021;52.836;6.376;2023-06-22T08:40:57;101928.91;;;22.90;58.67
55456;BME280;63021;52.836;6.376;2023-06-22T08:43:22;101931.63;;;22.97;58.12
55456;BME280;63021;52.836;6.376;2023-06-22T08:45:48;101927.69;;;22.99;57.94
55456;BME280;63021;52.836;6.376;2023-06-22T08:48:13;101923.09;;;23.07;57.78
55456;BME280;63021;52.836;6.376;2023-06-22T08:50:39;101923.16;;;23.13;58.07
55456;BME280;63021;52.836;6.376;2023-06-22T08:53:05;101919.63;;;23.20;57.56
55456;BME280;63021;52.836;6.376;2023-06-22T08:55:31;101919.00;;;23.24;57.17
55456;BME280;63021;52.836;6.376;2023-06-22T08:57:56;101924.88;;;23.34;57.14
55456;BME280;63021;52.836;6.376;2023-06-22T09:00:22;101923.41;;;23.39;57.16
55456;BME280;63021;52.836;6.376;2023-06-22T09:02:48;101919.91;;;23.45;56.55
55456;BME280;63021;52.836;6.376;2023-06-22T09:05:13;101921.78;;;23.51;56.20
55456;BME280;63021;52.836;6.376;2023-06-22T09:07:39;101911.13;;;23.56;56.05
55456;BME280;63021;52.836;6.376;2023-06-22T09:10:06;101901.50;;;23.60;55.99
55456;BME280;63021;52.836;6.376;2023-06-22T09:12:32;101899.22;;;23.64;55.79
55456;BME280;63021;52.836;6.376;2023-06-22T09:14:59;101894.19;;;23.67;55.54
55456;BME280;63021;52.836;6.376;2023-06-22T09:17:28;101887.28;;;23.72;55.65
55456;BME280;63021;52.836;6.376;2023-06-22T09:19:53;101879.56;;;23.75;54.87
55456;BME280;63021;52.836;6.376;2023-06-22T09:22:19;101885.19;;;23.80;55.12
55456;BME280;63021;52.836;6.376;2023-06-22T09:24:44;101882.69;;;23.85;54.85
55456;BME280;63021;52.836;6.376;2023-06-22T09:27:10;101888.38;;;23.91;54.50
55456;BME280;63021;52.836;6.376;2023-06-22T09:29:35;101881.22;;;23.96;54.46
55456;BME280;63021;52.836;6.376;2023-06-22T09:32:01;101887.31;;;24.05;55.21
55456;BME280;63021;52.836;6.376;2023-06-22T09:34:26;101880.19;;;24.11;54.52
55456;BME280;63021;52.836;6.376;2023-06-22T09:36:52;101875.34;;;24.13;54.33
55456;BME280;63021;52.836;6.376;2023-06-22T09:39:18;101870.94;;;24.18;54.45
55456;BME280;63021;52.836;6.376;2023-06-22T09:41:43;101871.97;;;24.24;54.31
55456;BME280;63021;52.836;6.376;2023-06-22T09:44:09;101874.66;;;24.31;54.07
55456;BME280;63021;52.836;6.376;2023-06-22T09:46:34;101868.16;;;24.38;54.53
55456;BME280;63021;52.836;6.376;2023-06-22T09:49:00;101862.91;;;24.44;53.04
55456;BME280;63021;52.836;6.376;2023-06-22T09:51:25;101865.59;;;24.50;53.32
55456;BME280;63021;52.836;6.376;2023-06-22T09:53:51;101870.41;;;24.55;53.09
55456;BME280;63021;52.836;6.376;2023-06-22T09:56:17;101872.09;;;24.63;52.44
55456;BME280;63021;52.836;6.376;2023-06-22T09:58:43;101863.28;;;24.67;52.58
55456;BME280;63021;52.836;6.376;2023-06-22T10:01:09;101868.28;;;24.70;52.58
55456;BME280;63021;52.836;6.376;2023-06-22T10:03:41;101861.94;;;24.77;52.02
55456;BME280;63021;52.836;6.376;2023-06-22T10:06:07;101863.84;;;24.83;52.58
55456;BME280;63021;52.836;6.376;2023-06-22T10:08:33;101864.19;;;24.93;52.46
55456;BME280;63021;52.836;6.376;2023-06-22T10:10:59;101865.81;;;25.01;51.89
55456;BME280;63021;52.836;6.376;2023-06-22T10:13:24;101865.94;;;25.13;52.30
55456;BME280;63021;52.836;6.376;2023-06-22T10:15:49;101848.28;;;25.22;52.16
55456;BME280;63021;52.836;6.376;2023-06-22T10:18:17;101867.06;;;25.37;50.98
55456;BME280;63021;52.836;6.376;2023-06-22T10:20:43;101857.41;;;25.41;50.56
55456;BME280;63021;52.836;6.376;2023-06-22T10:23:08;101848.53;;;25.46;50.77
55456;BME280;63021;52.836;6.376;2023-06-22T10:25:34;101859.84;;;25.49;50.37
55456;BME280;63021;52.836;6.376;2023-06-22T10:27:59;101860.69;;;25.50;50.39
55456;BME280;63021;52.836;6.376;2023-06-22T10:30:25;101859.41;;;25.52;50.15
55456;BME280;63021;52.836;6.376;2023-06-22T10:32:50;101852.44;;;25.56;48.86
55456;BME280;63021;52.836;6.376;2023-06-22T10:35:16;101846.78;;;25.58;49.12
55456;BME280;63021;52.836;6.376;2023-06-22T10:37:43;101846.94;;;25.63;49.88
55456;BME280;63021;52.836;6.376;2023-06-22T10:40:09;101838.53;;;25.65;49.61
55456;BME280;63021;52.836;6.376;2023-06-22T10:42:34;101832.19;;;25.71;49.87
55456;BME280;63021;52.836;6.376;2023-06-22T10:45:00;101820.13;;;25.79;49.43
55456;BME280;63021;52.836;6.376;2023-06-22T10:47:25;101821.59;;;25.81;49.64
55456;BME280;63021;52.836;6.376;2023-06-22T10:49:50;101820.31;;;25.84;49.20
55456;BME280;63021;52.836;6.376;2023-06-22T10:52:16;101820.31;;;25.84;48.65
55456;BME280;63021;52.836;6.376;2023-06-22T10:54:41;101823.03;;;25.84;47.58
55456;BME280;63021;52.836;6.376;2023-06-22T10:57:07;101821.00;;;25.79;46.60
55456;BME280;63021;52.836;6.376;2023-06-22T10:59:32;101819.09;;;25.80;46.59
55456;BME280;63021;52.836;6.376;2023-06-22T11:01:58;101824.78;;;25.78;47.07
55456;BME280;63021;52.836;6.376;2023-06-22T11:04:24;101833.56;;;25.80;46.99
55456;BME280;63021;52.836;6.376;2023-06-22T11:06:49;101832.72;;;25.80;47.01
55456;BME280;63021;52.836;6.376;2023-06-22T11:09:16;101820.59;;;25.75;46.92
55456;BME280;63021;52.836;6.376;2023-06-22T11:11:50;101833.41;;;25.75;46.66
55456;BME280;63021;52.836;6.376;2023-06-22T11:14:16;101833.63;;;25.73;47.08
55456;BME280;63021;52.836;6.376;2023-06-22T11:16:42;101831.72;;;25.74;47.03
55456;BME280;63021;52.836;6.376;2023-06-22T11:19:07;101829.81;;;25.74;47.04
55456;BME280;63021;52.836;6.376;2023-06-22T11:21:33;101810.13;;;25.72;46.64
55456;BME280;63021;52.836;6.376;2023-06-22T11:23:59;101827.31;;;25.73;46.66
55456;BME280;63021;52.836;6.376;2023-06-22T11:26:25;101833.19;;;25.76;47.33
55456;BME280;63021;52.836;6.376;2023-06-22T11:28:52;101833.56;;;25.80;47.20
55456;BME280;63021;52.836;6.376;2023-06-22T11:31:18;101824.31;;;25.81;47.42
55456;BME280;63021;52.836;6.376;2023-06-22T11:33:43;101823.50;;;25.81;47.52
55456;BME280;63021;52.836;6.376;2023-06-22T11:36:11;101828.50;;;25.84;47.59
55456;BME280;63021;52.836;6.376;2023-06-22T11:38:37;101828.03;;;25.87;46.74
55456;BME280;63021;52.836;6.376;2023-06-22T11:41:05;101823.22;;;25.89;47.52
55456;BME280;63021;52.836;6.376;2023-06-22T11:43:31;101815.84;;;25.89;47.32
55456;BME280;63021;52.836;6.376;2023-06-22T11:45:56;101826.06;;;25.94;46.42
55456;BME280;63021;52.836;6.376;2023-06-22T11:48:25;101819.56;;;25.95;46.07
55456;BME280;63021;52.836;6.376;2023-06-22T11:50:51;101819.13;;;25.98;46.33
55456;BME280;63021;52.836;6.376;2023-06-22T11:53:16;101810.03;;;26.04;46.10
55456;BME280;63021;52.836;6.376;2023-06-22T11:55:43;101810.81;;;26.11;46.27
55456;BME280;63021;52.836;6.376;2023-06-22T11:58:09;101805.97;;;26.14;46.36
55456;BME280;63021;52.836;6.376;2023-06-22T12:00:35;101798.38;;;26.16;46.09
55456;BME280;63021;52.836;6.376;2023-06-22T12:03:00;101801.03;;;26.22;46.10
55456;BME280;63021;52.836;6.376;2023-06-22T12:05:26;101806.38;;;26.29;46.13
55456;BME280;63021;52.836;6.376;2023-06-22T12:07:53;101796.69;;;26.33;46.60
55456;BME280;63021;52.836;6.376;2023-06-22T12:10:19;101786.38;;;26.35;45.85
55456;BME280;63021;52.836;6.376;2023-06-22T12:12:45;101785.44;;;26.41;46.01
55456;BME280;63021;52.836;6.376;2023-06-22T12:15:10;101774.06;;;26.44;46.28
55456;BME280;63021;52.836;6.376;2023-06-22T12:17:36;101775.75;;;26.45;45.50
55456;BME280;63021;52.836;6.376;2023-06-22T12:20:02;101769.81;;;26.49;45.77
55456;BME280;63021;52.836;6.376;2023-06-22T12:22:31;101772.31;;;26.50;45.31
55456;BME280;63021;52.836;6.376;2023-06-22T12:24:57;101773.38;;;26.49;45.41
55456;BME280;63021;52.836;6.376;2023-06-22T12:27:22;101763.16;;;26.44;45.59
55456;BME280;63021;52.836;6.376;2023-06-22T12:29:47;101766.97;;;26.43;44.37
55456;BME280;63021;52.836;6.376;2023-06-22T12:32:13;101758.16;;;26.41;45.38
55456;BME280;63021;52.836;6.376;2023-06-22T12:34:41;101762.91;;;26.46;45.05
55456;BME280;63021;52.836;6.376;2023-06-22T12:37:07;101762.44;;;26.49;45.31
55456;BME280;63021;52.836;6.376;2023-06-22T12:39:32;101749.75;;;26.55;45.28
55456;BME280;63021;52.836;6.376;2023-06-22T12:41:58;101753.47;;;26.60;45.71
55456;BME280;63021;52.836;6.376;2023-06-22T12:44:23;101751.13;;;26.64;45.10
55456;BME280;63021;52.836;6.376;2023-06-22T12:46:49;101742.94;;;26.64;44.93
55456;BME280;63021;52.836;6.376;2023-06-22T12:49:14;101743.16;;;26.62;44.22
55456;BME280;63021;52.836;6.376;2023-06-22T12:51:41;101741.13;;;26.58;44.39